Flight Track Log - Related Links

Times and Time Zones

All times are in EDT time to prevent confusion due to time zone crossing. See the EJA365 flight status page for this flight to view local times or setup timezone preferences in your user account.

Time Position Orientation Groundspeed Altitude Reporting Facility
EDT Latitude Longitude Course Direction KTS MPH feet Rate Location/Type
Fri 02:04:16 PM 36.3889 -76.0306 299° West 151 174 1,100  Level Washington Center
Fri 02:05:07 PM 36.4094 -76.0772 299° West 200 230 3,000 2,087 Climbing Washington Center
Fri 02:05:25 PM 36.4219 -76.0953 311° West 204 235 3,500 2,278 Climbing Washington Center
Fri 02:06:26 PM 36.4719 -76.1447 322° Northwest 248 285 6,000 1,279 Climbing Washington Center
Fri 02:07:27 PM 36.5300 -76.2019 322° Northwest 244 281 6,100  Climbing Washington Center
Fri 02:08:27 PM 36.5819 -76.2542 321° Northwest 246 283 6,000 1,163 Descending Washington Center
Fri 02:10:07 PM 36.6753 -76.3508 320° Northwest 291 335 9,200 2,243 Climbing Washington Center
Fri 02:10:22 PM 36.6897 -76.3689 315° West 291 335 10,300 2,400 Climbing Washington Center
Fri 02:11:07 PM 36.7394 -76.4186 321° Northwest 329 379 11,600 1,829 Climbing Washington Center
Fri 02:12:07 PM 36.8014 -76.4919 317° Northwest 329 379 13,500 1,200 Climbing Washington Center
Fri 02:13:07 PM 36.8739 -76.5758 317° Northwest 344 396 14,000 300 Climbing Washington Center
Fri 02:14:07 PM 36.9483 -76.6628 317° Northwest 355 409 14,100 -50 Climbing Washington Center
Fri 02:15:07 PM 37.0225 -76.7494 317° Northwest 355 409 13,900 -50 Descending Washington Center
Fri 02:16:07 PM 37.0947 -76.8364 316° Northwest 355 409 14,000 1,150 Climbing Washington Center
Fri 02:17:07 PM 37.1667 -76.9211 317° Northwest 355 409 16,200 2,650 Climbing Washington Center
Fri 02:18:07 PM 37.2492 -77.0217 316° Northwest 360 414 19,300 1,900 Climbing Washington Center
Fri 02:19:07 PM 37.3292 -77.1172 316° Northwest 388 447 20,000 347 Climbing Washington Center
Fri 02:20:08 PM 37.4094 -77.2128 317° Northwest 397 457 20,000  Level Washington Center
Fri 02:21:08 PM 37.4894 -77.3008 319° Northwest 392 451 20,000 655 Level Washington Center
Fri 02:22:07 PM 37.5997 -77.3322 347° North 383 441 21,300 1,866 Climbing Washington Center
Fri 02:23:07 PM 37.7183 -77.3428 356° North 404 465 23,700 2,350 Climbing Washington Center
Fri 02:24:07 PM 37.8411 -77.3561 355° North 412 474 26,000 2,350 Climbing Washington Center
Fri 02:25:07 PM 37.9642 -77.3669 356° North 425 489 28,400 2,050 Climbing Washington Center
Fri 02:26:07 PM 38.0722 -77.3828 353° North 432 497 30,100 1,300 Climbing Washington Center
Fri 02:27:07 PM 38.2014 -77.3939 356° North 442 509 31,000 450 Climbing Washington Center
Fri 02:28:07 PM 38.3347 -77.4075 355° North 464 534 31,000  Level Washington Center
Fri 02:29:07 PM 38.4678 -77.4214 355° North 476 548 31,000  Level Washington Center
Fri 02:30:08 PM 38.6011 -77.4353 355° North 476 548 31,000  Level Washington Center
Fri 02:31:07 PM 38.7322 -77.4467 356° North 476 548 31,000  Level Washington Center
Fri 02:32:07 PM 38.8614 -77.4606 355° North 471 542 31,000  Level Washington Center
Fri 02:34:00 PM 39.1250 -77.4625 360° North 497 572 31,000  Level New Center
Fri 02:34:58 PM 39.2606 -77.4617 360° North 491 565 31,000  Level New Center
Fri 02:35:58 PM 39.3981 -77.4614 360° North 491 565 31,000  Level New Center
Fri 02:36:59 PM 39.5319 -77.4578 North 485 558 31,000  Level New Center
Fri 02:37:59 PM 39.6653 -77.4569 360° North 480 552 31,000  Level New Center
Fri 02:39:00 PM 39.7992 -77.4536 North 480 552 31,000 -202 Level New Center
Fri 02:39:58 PM 39.9306 -77.4497 North 475 547 30,600 -645 Descending New Center
Fri 02:41:01 PM 40.0644 -77.4464 North 480 552 29,700 -800 Descending New Center
Fri 02:41:58 PM 40.2061 -77.4464 360° North 485 558 29,000 -356 Descending New Center
Fri 02:42:59 PM 40.3419 -77.4431 North 490 564 29,000  Level New Center
Fri 02:43:59 PM 40.4753 -77.4422 360° North 490 564 29,000  Level New Center
Fri 02:45:00 PM 40.6108 -77.4392 North 485 558 29,000  Level New Center
Fri 02:46:00 PM 40.7508 -77.4361 North 485 558 29,000 -356 Level New Center
Fri 02:46:58 PM 40.8864 -77.4358 360° North 485 558 28,300 -966 Descending New Center
Fri 02:47:58 PM 41.0281 -77.4331 North 490 564 27,100 -1,190 Descending New Center
Fri 02:48:59 PM 41.1658 -77.4300 North 495 570 25,900 -1,041 Descending New Center
Fri 02:49:59 PM 41.2994 -77.4267 North 495 570 25,000 -893 Descending New Center
Fri 02:51:00 PM 41.4203 -77.4275 360° North 490 564 24,100 -935 Descending New Center
Fri 02:52:33 PM 41.6267 -77.4217 North 472 543 22,600 -824 Descending Cleveland Center
Fri 02:53:33 PM 41.7500 -77.4325 356° North 461 531 22,000 -300 Descending Cleveland Center
Fri 02:54:33 PM 41.8714 -77.4514 353° North 450 518 22,000  Level Cleveland Center
Fri 02:55:33 PM 41.9908 -77.4736 352° North 438 504 22,000 -800 Level Cleveland Center
Fri 02:56:33 PM 42.1122 -77.4928 353° North 433 498 20,400 -1,850 Descending Cleveland Center
Fri 02:57:33 PM 42.2256 -77.5128 353° North 426 490 18,300 -2,325 Descending Cleveland Center
Fri 02:57:53 PM 42.2736 -77.5244 350° North 383 441 17,300 -2,200 Descending Cleveland Center
Fri 02:58:33 PM 42.3386 -77.5353 353° North 410 472 16,100 -2,203 Descending Cleveland Center
Fri 02:59:12 PM 42.4203 -77.5511 352° North 404 465 14,400 -2,200 Descending Cleveland Center
Fri 02:59:33 PM 42.4456 -77.5528 357° North 404 465 13,900 -2,066 Descending Cleveland Center
Fri 03:00:13 PM 42.5258 -77.5178 18° North 396 456 12,300 -2,100 Descending Cleveland Center
Fri 03:00:33 PM 42.5525 -77.5053 19° North 376 433 11,800 -2,100 Descending Cleveland Center
Fri 03:01:13 PM 42.6242 -77.4594 25° Northeast 375 432 10,200 -1,700 Descending Cleveland Center
Fri 03:01:33 PM 42.6597 -77.4547 North 376 433 10,100 -2,066 Descending Cleveland Center
Fri 03:02:14 PM 42.7150 -77.4267 20° North 319 367 8,100 -2,300 Descending Cleveland Center
Fri 03:02:33 PM 42.7378 -77.4169 17° North 356 410 7,800 -1,869 Descending Cleveland Center
Fri 03:03:15 PM 42.8025 -77.4250 355° North 302 348 6,200 -2,100 Descending Cleveland Center
Fri 03:03:33 PM 42.8281 -77.4378 340° North 306 352 5,700 -1,364 Descending Cleveland Center
Fri 03:04:21 PM 42.8936 -77.4686 341° North 294 338 4,700 -1,223 Descending Cleveland Center
Fri 03:05:16 PM 42.9564 -77.4881 347° North 277 319 3,600 -1,333 Descending Cleveland Center
Fri 03:05:33 PM 42.9817 -77.4925 353° North 282 325 3,100 -1,100 Descending Cleveland Center
Fri 03:06:16 PM 43.0256 -77.5017 351° North 240 276 2,500 -600 Descending Cleveland Center
Fri 03:06:33 PM 43.0444 -77.5036 356° North 259 298 2,500  Level Cleveland Center
Fri 03:07:17 PM 43.0886 -77.5128 351° North 187 215 2,500  Level Cleveland Center
Fri 03:07:33 PM 43.0989 -77.5153 350° North 222 255 2,500 -295 Level Cleveland Center
Fri 03:08:18 PM 43.1208 -77.5511 310° West 144 166 2,200 -514 Descending Cleveland Center
Fri 03:09:18 PM 43.1239 -77.5908 276° West 91 105 1,600 -545 Descending Cleveland Center
Fri 03:10:19 PM 43.1228 -77.6306 268° West 97 112 1,100 -492 Descending Cleveland Center

Login

Don't have an account? Register now (free) for customized features, flight alerts, and more!